Portada
METAR-TAF:

METAR-TAF

Aeroports :

Aeroport de París-Charles de Gaulle

París-Charles de Gaulle, França

latitud: 49-01N, longitud: 002-32E, altitud: 118 m

Observació

L'informe es va fer fa 39 minuts, a les 10:00 UTC
Vent 3 kt del Est/Nord-Est, variant entre Nord/Nord-Oest i Sud-Est
Temperatura 25°C
Humitat 39%
Pressió 1016 hPa
Visibilitat 10 km o més
sense núvols per sota de 1500 mi sense presència de cumulonimbus.

METAR: LFPG 171000Z 06003KT 330V130 CAVOK 25/10 Q1016 NOSIG

Hora: 12:39 (10:39 UTC)

Pronòstic

L'informe es va fer fa 5 hores i 39 minuts, a les 05:00 UTC
Pronòstic vàlid del 17 a les 06 UTC al 18 a les 12 UTC
Vent 3 kt amb direcció variable
Visibilitat 10 km o més
sense núvols per sota de 1500 mi sense presència de cumulonimbus.
Evolucionant progressivament
l' 17 a les 16 UTC al 17 a les 18 UTC
Vent 8 kt del Nord/Nord-Oest

TAF: LFPG 170500Z 1706/1812 VRB03KT CAVOK TX28/1715Z TN16/1706Z BECMG 1716/1718 34008KT

Observacions i pronòstics meteorològics de més de 4000 aeroports (METAR i TAF).

Les estacions disponibles són els punts grocs i vermells al mapa.

Posi el ratolí al punt desitjat per veure el nom de l'estació.

Feu clic per veure les observacions i els pronòstics meteorològics.

Per canviar el mapa: feu clic els botons verds amb una creu de color negre per apropar; al botó verd amb un guió per allunyar la imatge; o en les fletxes verdes per a mapes adjacents.


METAR-TAF: